sensor_id;sensor_type;location;lat;lon;timestamp;P1;durP1;ratioP1;P2;durP2;ratioP2
72286;SDS011;60221;45.696;16.076;2022-09-09T00:02:22;10.27;;;4.37;;
72286;SDS011;60221;45.696;16.076;2022-09-09T00:04:58;11.57;;;4.25;;
72286;SDS011;60221;45.696;16.076;2022-09-09T00:13:18;12.40;;;4.62;;
72286;SDS011;60221;45.696;16.076;2022-09-09T00:15:46;10.13;;;4.33;;
72286;SDS011;60221;45.696;16.076;2022-09-09T00:21:33;9.48;;;5.05;;
72286;SDS011;60221;45.696;16.076;2022-09-09T00:24:11;10.82;;;5.10;;
72286;SDS011;60221;45.696;16.076;2022-09-09T00:26:48;8.28;;;4.83;;
72286;SDS011;60221;45.696;16.076;2022-09-09T00:29:22;13.80;;;4.73;;
72286;SDS011;60221;45.696;16.076;2022-09-09T00:31:59;9.18;;;4.35;;
72286;SDS011;60221;45.696;16.076;2022-09-09T00:34:25;8.73;;;4.67;;
72286;SDS011;60221;45.696;16.076;2022-09-09T00:36:54;10.53;;;4.62;;
72286;SDS011;60221;45.696;16.076;2022-09-09T00:39:37;9.75;;;5.05;;
72286;SDS011;60221;45.696;16.076;2022-09-09T00:44:52;13.62;;;4.92;;
72286;SDS011;60221;45.696;16.076;2022-09-09T00:58:57;9.48;;;4.25;;
72286;SDS011;60221;45.696;16.076;2022-09-09T01:01:38;9.25;;;4.35;;
72286;SDS011;60221;45.696;16.076;2022-09-09T01:04:08;11.28;;;5.03;;
72286;SDS011;60221;45.696;16.076;2022-09-09T01:06:41;9.43;;;4.70;;
72286;SDS011;60221;45.696;16.076;2022-09-09T01:09:38;10.13;;;5.07;;
72286;SDS011;60221;45.696;16.076;2022-09-09T01:11:57;9.75;;;4.70;;
72286;SDS011;60221;45.696;16.076;2022-09-09T01:20:12;13.40;;;3.87;;
72286;SDS011;60221;45.696;16.076;2022-09-09T01:22:55;8.63;;;4.27;;
72286;SDS011;60221;45.696;16.076;2022-09-09T01:28:46;10.88;;;5.08;;
72286;SDS011;60221;45.696;16.076;2022-09-09T01:31:19;7.83;;;4.42;;
72286;SDS011;60221;45.696;16.076;2022-09-09T01:33:55;8.65;;;4.40;;
72286;SDS011;60221;45.696;16.076;2022-09-09T01:36:28;8.57;;;4.63;;
72286;SDS011;60221;45.696;16.076;2022-09-09T01:38:59;9.55;;;4.53;;
72286;SDS011;60221;45.696;16.076;2022-09-09T01:41:25;7.17;;;3.85;;
72286;SDS011;60221;45.696;16.076;2022-09-09T01:44:01;9.60;;;4.05;;
72286;SDS011;60221;45.696;16.076;2022-09-09T01:46:30;9.48;;;4.70;;
72286;SDS011;60221;45.696;16.076;2022-09-09T01:48:58;10.80;;;4.73;;
72286;SDS011;60221;45.696;16.076;2022-09-09T01:51:28;10.05;;;4.10;;
72286;SDS011;60221;45.696;16.076;2022-09-09T01:53:56;10.13;;;4.55;;
72286;SDS011;60221;45.696;16.076;2022-09-09T01:56:40;10.40;;;4.75;;
72286;SDS011;60221;45.696;16.076;2022-09-09T02:04:47;9.50;;;4.80;;
72286;SDS011;60221;45.696;16.076;2022-09-09T02:07:31;8.30;;;4.50;;
72286;SDS011;60221;45.696;16.076;2022-09-09T02:10:11;9.10;;;5.00;;
72286;SDS011;60221;45.696;16.076;2022-09-09T02:12:53;10.50;;;4.42;;
72286;SDS011;60221;45.696;16.076;2022-09-09T02:15:30;8.70;;;5.13;;
72286;SDS011;60221;45.696;16.076;2022-09-09T02:17:59;9.53;;;4.42;;
72286;SDS011;60221;45.696;16.076;2022-09-09T02:20:32;7.30;;;3.95;;
72286;SDS011;60221;45.696;16.076;2022-09-09T02:23:02;6.60;;;3.62;;
72286;SDS011;60221;45.696;16.076;2022-09-09T02:25:34;8.28;;;4.47;;
72286;SDS011;60221;45.696;16.076;2022-09-09T02:28:06;6.83;;;3.97;;
72286;SDS011;60221;45.696;16.076;2022-09-09T02:30:36;8.08;;;4.37;;
72286;SDS011;60221;45.696;16.076;2022-09-09T02:33:07;8.55;;;4.53;;
72286;SDS011;60221;45.696;16.076;2022-09-09T02:35:45;8.15;;;4.33;;
72286;SDS011;60221;45.696;16.076;2022-09-09T02:38:15;7.10;;;4.60;;
72286;SDS011;60221;45.696;16.076;2022-09-09T02:40:45;9.97;;;4.40;;
72286;SDS011;60221;45.696;16.076;2022-09-09T02:43:11;9.90;;;4.25;;
72286;SDS011;60221;45.696;16.076;2022-09-09T02:45:46;10.20;;;4.53;;
72286;SDS011;60221;45.696;16.076;2022-09-09T02:48:16;9.60;;;4.30;;
72286;SDS011;60221;45.696;16.076;2022-09-09T02:53:57;8.33;;;4.77;;
72286;SDS011;60221;45.696;16.076;2022-09-09T02:56:42;8.48;;;4.40;;
72286;SDS011;60221;45.696;16.076;2022-09-09T02:59:11;8.35;;;4.08;;
72286;SDS011;60221;45.696;16.076;2022-09-09T03:01:38;10.40;;;4.55;;
72286;SDS011;60221;45.696;16.076;2022-09-09T03:04:06;11.28;;;4.55;;
72286;SDS011;60221;45.696;16.076;2022-09-09T03:06:32;9.80;;;4.70;;
72286;SDS011;60221;45.696;16.076;2022-09-09T03:09:00;9.43;;;4.33;;
72286;SDS011;60221;45.696;16.076;2022-09-09T03:11:28;9.98;;;4.58;;
72286;SDS011;60221;45.696;16.076;2022-09-09T03:13:54;9.90;;;4.45;;
72286;SDS011;60221;45.696;16.076;2022-09-09T03:16:24;11.63;;;3.95;;
72286;SDS011;60221;45.696;16.076;2022-09-09T03:18:52;8.60;;;4.07;;
72286;SDS011;60221;45.696;16.076;2022-09-09T03:21:19;8.33;;;3.70;;
72286;SDS011;60221;45.696;16.076;2022-09-09T03:23:45;9.28;;;3.87;;
72286;SDS011;60221;45.696;16.076;2022-09-09T03:26:11;6.95;;;4.00;;
72286;SDS011;60221;45.696;16.076;2022-09-09T03:28:42;6.65;;;4.03;;
72286;SDS011;60221;45.696;16.076;2022-09-09T03:31:10;9.33;;;4.20;;
72286;SDS011;60221;45.696;16.076;2022-09-09T03:33:40;6.83;;;3.87;;
72286;SDS011;60221;45.696;16.076;2022-09-09T03:36:07;7.42;;;3.98;;
72286;SDS011;60221;45.696;16.076;2022-09-09T03:38:34;7.60;;;4.12;;
72286;SDS011;60221;45.696;16.076;2022-09-09T03:41:00;9.30;;;4.20;;
72286;SDS011;60221;45.696;16.076;2022-09-09T03:43:27;8.30;;;3.90;;
72286;SDS011;60221;45.696;16.076;2022-09-09T03:45:55;7.33;;;3.35;;
72286;SDS011;60221;45.696;16.076;2022-09-09T03:48:25;8.93;;;3.55;;
72286;SDS011;60221;45.696;16.076;2022-09-09T03:50:53;7.70;;;2.58;;
72286;SDS011;60221;45.696;16.076;2022-09-09T03:53:23;7.60;;;2.15;;
72286;SDS011;60221;45.696;16.076;2022-09-09T03:55:51;5.57;;;2.70;;
72286;SDS011;60221;45.696;16.076;2022-09-09T03:58:22;5.95;;;2.50;;
72286;SDS011;60221;45.696;16.076;2022-09-09T04:03:25;7.03;;;2.00;;
72286;SDS011;60221;45.696;16.076;2022-09-09T04:05:53;7.35;;;1.80;;
72286;SDS011;60221;45.696;16.076;2022-09-09T04:08:22;7.33;;;2.30;;
72286;SDS011;60221;45.696;16.076;2022-09-09T04:10:51;5.30;;;1.90;;
72286;SDS011;60221;45.696;16.076;2022-09-09T04:13:18;4.50;;;1.70;;
72286;SDS011;60221;45.696;16.076;2022-09-09T04:15:52;4.67;;;2.00;;
72286;SDS011;60221;45.696;16.076;2022-09-09T04:18:21;8.58;;;1.52;;
72286;SDS011;60221;45.696;16.076;2022-09-09T04:20:49;4.03;;;1.50;;
72286;SDS011;60221;45.696;16.076;2022-09-09T04:23:19;5.08;;;1.30;;
72286;SDS011;60221;45.696;16.076;2022-09-09T04:25:46;7.65;;;1.60;;
72286;SDS011;60221;45.696;16.076;2022-09-09T04:28:18;4.90;;;1.45;;
72286;SDS011;60221;45.696;16.076;2022-09-09T04:30:47;5.97;;;0.90;;
72286;SDS011;60221;45.696;16.076;2022-09-09T04:33:13;4.57;;;1.57;;
72286;SDS011;60221;45.696;16.076;2022-09-09T04:35:46;4.25;;;1.40;;
72286;SDS011;60221;45.696;16.076;2022-09-09T04:38:16;4.65;;;1.07;;
72286;SDS011;60221;45.696;16.076;2022-09-09T04:40:47;4.67;;;1.40;;
72286;SDS011;60221;45.696;16.076;2022-09-09T04:43:19;6.30;;;1.47;;
72286;SDS011;60221;45.696;16.076;2022-09-09T04:45:48;3.83;;;1.33;;
72286;SDS011;60221;45.696;16.076;2022-09-09T04:48:20;5.03;;;1.05;;
72286;SDS011;60221;45.696;16.076;2022-09-09T04:51:01;5.72;;;1.30;;
72286;SDS011;60221;45.696;16.076;2022-09-09T04:53:31;10.23;;;1.57;;
72286;SDS011;60221;45.696;16.076;2022-09-09T04:56:04;5.12;;;1.25;;
72286;SDS011;60221;45.696;16.076;2022-09-09T04:58:37;6.67;;;1.47;;
72286;SDS011;60221;45.696;16.076;2022-09-09T05:01:13;5.72;;;1.57;;
72286;SDS011;60221;45.696;16.076;2022-09-09T05:03:38;7.33;;;1.50;;
72286;SDS011;60221;45.696;16.076;2022-09-09T05:06:10;5.78;;;1.52;;
72286;SDS011;60221;45.696;16.076;2022-09-09T05:08:40;5.92;;;1.55;;
72286;SDS011;60221;45.696;16.076;2022-09-09T05:11:17;5.70;;;1.23;;
72286;SDS011;60221;45.696;16.076;2022-09-09T05:13:45;7.00;;;1.77;;
72286;SDS011;60221;45.696;16.076;2022-09-09T05:16:13;7.30;;;1.75;;
72286;SDS011;60221;45.696;16.076;2022-09-09T05:18:40;6.08;;;1.98;;
72286;SDS011;60221;45.696;16.076;2022-09-09T05:21:10;4.35;;;1.25;;
72286;SDS011;60221;45.696;16.076;2022-09-09T05:23:39;4.50;;;1.43;;
72286;SDS011;60221;45.696;16.076;2022-09-09T05:26:08;4.83;;;1.30;;
72286;SDS011;60221;45.696;16.076;2022-09-09T05:28:39;5.25;;;1.37;;
72286;SDS011;60221;45.696;16.076;2022-09-09T05:31:06;4.60;;;1.75;;
72286;SDS011;60221;45.696;16.076;2022-09-09T05:33:37;3.22;;;1.35;;
72286;SDS011;60221;45.696;16.076;2022-09-09T05:36:08;3.50;;;1.40;;
72286;SDS011;60221;45.696;16.076;2022-09-09T05:38:44;5.28;;;1.27;;
72286;SDS011;60221;45.696;16.076;2022-09-09T05:41:12;5.62;;;1.00;;
72286;SDS011;60221;45.696;16.076;2022-09-09T05:43:43;5.10;;;1.60;;
72286;SDS011;60221;45.696;16.076;2022-09-09T05:46:17;5.00;;;1.17;;
72286;SDS011;60221;45.696;16.076;2022-09-09T05:48:48;4.87;;;1.07;;
72286;SDS011;60221;45.696;16.076;2022-09-09T05:51:21;10.43;;;1.30;;
72286;SDS011;60221;45.696;16.076;2022-09-09T05:53:53;11.08;;;1.70;;
72286;SDS011;60221;45.696;16.076;2022-09-09T05:56:27;10.05;;;1.42;;
72286;SDS011;60221;45.696;16.076;2022-09-09T05:58:56;5.70;;;1.00;;
72286;SDS011;60221;45.696;16.076;2022-09-09T06:01:24;4.83;;;1.13;;
72286;SDS011;60221;45.696;16.076;2022-09-09T06:03:56;3.92;;;0.98;;
72286;SDS011;60221;45.696;16.076;2022-09-09T06:06:23;6.05;;;0.60;;
72286;SDS011;60221;45.696;16.076;2022-09-09T06:08:55;4.12;;;0.85;;
72286;SDS011;60221;45.696;16.076;2022-09-09T06:11:28;5.22;;;0.80;;
72286;SDS011;60221;45.696;16.076;2022-09-09T06:13:57;3.63;;;0.70;;
72286;SDS011;60221;45.696;16.076;2022-09-09T06:16:26;6.05;;;0.98;;
72286;SDS011;60221;45.696;16.076;2022-09-09T06:18:55;6.20;;;1.95;;
72286;SDS011;60221;45.696;16.076;2022-09-09T06:21:24;8.40;;;2.08;;
72286;SDS011;60221;45.696;16.076;2022-09-09T06:24:00;2.70;;;0.70;;
72286;SDS011;60221;45.696;16.076;2022-09-09T06:26:32;2.90;;;0.70;;
72286;SDS011;60221;45.696;16.076;2022-09-09T06:29:03;3.12;;;0.42;;
72286;SDS011;60221;45.696;16.076;2022-09-09T06:31:31;2.72;;;0.80;;
72286;SDS011;60221;45.696;16.076;2022-09-09T06:34:04;3.83;;;0.80;;
72286;SDS011;60221;45.696;16.076;2022-09-09T06:36:34;3.15;;;0.85;;
72286;SDS011;60221;45.696;16.076;2022-09-09T06:39:05;4.10;;;0.80;;
72286;SDS011;60221;45.696;16.076;2022-09-09T06:41:35;6.70;;;1.20;;
72286;SDS011;60221;45.696;16.076;2022-09-09T06:44:02;5.80;;;1.40;;
72286;SDS011;60221;45.696;16.076;2022-09-09T06:46:31;3.60;;;0.82;;
72286;SDS011;60221;45.696;16.076;2022-09-09T06:48:59;5.35;;;1.22;;
72286;SDS011;60221;45.696;16.076;2022-09-09T06:51:28;2.93;;;0.87;;
72286;SDS011;60221;45.696;16.076;2022-09-09T06:53:58;5.62;;;1.30;;
72286;SDS011;60221;45.696;16.076;2022-09-09T06:56:29;3.15;;;0.90;;
72286;SDS011;60221;45.696;16.076;2022-09-09T06:59:04;2.50;;;0.62;;
72286;SDS011;60221;45.696;16.076;2022-09-09T07:01:35;2.58;;;0.80;;
72286;SDS011;60221;45.696;16.076;2022-09-09T07:04:08;5.63;;;0.90;;
72286;SDS011;60221;45.696;16.076;2022-09-09T07:06:39;2.40;;;0.60;;
72286;SDS011;60221;45.696;16.076;2022-09-09T07:09:14;2.40;;;0.70;;
72286;SDS011;60221;45.696;16.076;2022-09-09T07:11:44;2.37;;;0.37;;
72286;SDS011;60221;45.696;16.076;2022-09-09T07:14:14;3.75;;;0.60;;
72286;SDS011;60221;45.696;16.076;2022-09-09T07:16:43;3.73;;;0.70;;
72286;SDS011;60221;45.696;16.076;2022-09-09T07:19:12;3.50;;;0.70;;
72286;SDS011;60221;45.696;16.076;2022-09-09T07:21:40;2.75;;;0.78;;
72286;SDS011;60221;45.696;16.076;2022-09-09T07:24:07;2.52;;;0.78;;
72286;SDS011;60221;45.696;16.076;2022-09-09T07:26:36;3.20;;;0.90;;
72286;SDS011;60221;45.696;16.076;2022-09-09T07:29:05;2.00;;;0.43;;
72286;SDS011;60221;45.696;16.076;2022-09-09T07:31:35;4.05;;;0.90;;
72286;SDS011;60221;45.696;16.076;2022-09-09T07:34:07;1.95;;;0.57;;
72286;SDS011;60221;45.696;16.076;2022-09-09T07:36:34;2.17;;;0.70;;
72286;SDS011;60221;45.696;16.076;2022-09-09T07:39:06;3.10;;;0.80;;
72286;SDS011;60221;45.696;16.076;2022-09-09T07:41:40;2.17;;;0.63;;
72286;SDS011;60221;45.696;16.076;2022-09-09T07:44:18;5.47;;;1.12;;
72286;SDS011;60221;45.696;16.076;2022-09-09T07:46:47;3.90;;;0.70;;
72286;SDS011;60221;45.696;16.076;2022-09-09T07:49:17;2.12;;;0.60;;
72286;SDS011;60221;45.696;16.076;2022-09-09T07:51:44;3.10;;;0.80;;
72286;SDS011;60221;45.696;16.076;2022-09-09T07:54:15;2.40;;;0.60;;
72286;SDS011;60221;45.696;16.076;2022-09-09T07:56:49;4.28;;;1.07;;
72286;SDS011;60221;45.696;16.076;2022-09-09T07:59:17;3.50;;;0.82;;
72286;SDS011;60221;45.696;16.076;2022-09-09T08:01:47;2.22;;;0.50;;
72286;SDS011;60221;45.696;16.076;2022-09-09T08:04:19;1.80;;;0.50;;
72286;SDS011;60221;45.696;16.076;2022-09-09T08:06:48;2.43;;;0.60;;
72286;SDS011;60221;45.696;16.076;2022-09-09T08:09:19;2.42;;;0.60;;
72286;SDS011;60221;45.696;16.076;2022-09-09T08:11:47;2.47;;;0.68;;
72286;SDS011;60221;45.696;16.076;2022-09-09T08:14:15;1.82;;;0.60;;
72286;SDS011;60221;45.696;16.076;2022-09-09T08:16:47;1.62;;;0.40;;
72286;SDS011;60221;45.696;16.076;2022-09-09T08:19:14;2.63;;;0.40;;
72286;SDS011;60221;45.696;16.076;2022-09-09T08:21:41;2.67;;;0.80;;
72286;SDS011;60221;45.696;16.076;2022-09-09T08:24:10;2.12;;;0.50;;
72286;SDS011;60221;45.696;16.076;2022-09-09T08:26:44;3.77;;;0.50;;
72286;SDS011;60221;45.696;16.076;2022-09-09T08:29:15;2.55;;;0.53;;
72286;SDS011;60221;45.696;16.076;2022-09-09T08:31:43;2.40;;;0.83;;
72286;SDS011;60221;45.696;16.076;2022-09-09T08:34:16;4.03;;;0.80;;
72286;SDS011;60221;45.696;16.076;2022-09-09T08:36:47;2.25;;;0.50;;
72286;SDS011;60221;45.696;16.076;2022-09-09T08:39:16;1.80;;;0.50;;
72286;SDS011;60221;45.696;16.076;2022-09-09T08:44:55;3.50;;;0.53;;
72286;SDS011;60221;45.696;16.076;2022-09-09T08:47:40;2.65;;;0.40;;
72286;SDS011;60221;45.696;16.076;2022-09-09T08:50:26;1.98;;;0.50;;
72286;SDS011;60221;45.696;16.076;2022-09-09T08:53:05;2.00;;;0.47;;
72286;SDS011;60221;45.696;16.076;2022-09-09T08:55:51;2.83;;;0.40;;
72286;SDS011;60221;45.696;16.076;2022-09-09T08:58:34;1.33;;;0.30;;
72286;SDS011;60221;45.696;16.076;2022-09-09T09:04:02;3.27;;;0.55;;
72286;SDS011;60221;45.696;16.076;2022-09-09T09:12:38;2.93;;;0.60;;
72286;SDS011;60221;45.696;16.076;2022-09-09T09:15:14;2.67;;;0.60;;
72286;SDS011;60221;45.696;16.076;2022-09-09T09:17:42;1.92;;;0.60;;
72286;SDS011;60221;45.696;16.076;2022-09-09T09:20:14;2.47;;;0.40;;
72286;SDS011;60221;45.696;16.076;2022-09-09T09:22:49;1.65;;;0.40;;
72286;SDS011;60221;45.696;16.076;2022-09-09T09:25:20;1.77;;;0.40;;
72286;SDS011;60221;45.696;16.076;2022-09-09T09:30:49;2.92;;;0.80;;
72286;SDS011;60221;45.696;16.076;2022-09-09T09:36:12;2.92;;;0.50;;
72286;SDS011;60221;45.696;16.076;2022-09-09T09:38:53;1.83;;;0.30;;
72286;SDS011;60221;45.696;16.076;2022-09-09T09:41:36;2.35;;;0.50;;
72286;SDS011;60221;45.696;16.076;2022-09-09T09:44:21;2.67;;;0.60;;
72286;SDS011;60221;45.696;16.076;2022-09-09T09:46:50;3.47;;;0.60;;
72286;SDS011;60221;45.696;16.076;2022-09-09T09:49:17;2.00;;;0.60;;
72286;SDS011;60221;45.696;16.076;2022-09-09T09:51:44;2.80;;;0.83;;
72286;SDS011;60221;45.696;16.076;2022-09-09T09:56:51;2.10;;;0.60;;
72286;SDS011;60221;45.696;16.076;2022-09-09T09:59:22;3.52;;;0.70;;
72286;SDS011;60221;45.696;16.076;2022-09-09T10:02:05;2.45;;;0.70;;
72286;SDS011;60221;45.696;16.076;2022-09-09T10:07:44;3.27;;;0.53;;
72286;SDS011;60221;45.696;16.076;2022-09-09T10:10:21;2.33;;;0.60;;
72286;SDS011;60221;45.696;16.076;2022-09-09T10:27:22;3.70;;;0.80;;
72286;SDS011;60221;45.696;16.076;2022-09-09T10:41:13;2.30;;;0.90;;
72286;SDS011;60221;45.696;16.076;2022-09-09T10:44:05;3.10;;;1.27;;
72286;SDS011;60221;45.696;16.076;2022-09-09T10:49:48;4.12;;;1.00;;
72286;SDS011;60221;45.696;16.076;2022-09-09T10:52:48;3.35;;;1.10;;
72286;SDS011;60221;45.696;16.076;2022-09-09T10:55:12;4.92;;;1.22;;
72286;SDS011;60221;45.696;16.076;2022-09-09T11:00:22;2.80;;;1.07;;
72286;SDS011;60221;45.696;16.076;2022-09-09T11:03:03;3.05;;;1.10;;
72286;SDS011;60221;45.696;16.076;2022-09-09T11:05:38;3.20;;;1.10;;
72286;SDS011;60221;45.696;16.076;2022-09-09T11:08:21;2.40;;;1.10;;
72286;SDS011;60221;45.696;16.076;2022-09-09T11:13:53;2.20;;;1.00;;
72286;SDS011;60221;45.696;16.076;2022-09-09T11:19:38;5.42;;;1.30;;
72286;SDS011;60221;45.696;16.076;2022-09-09T11:22:19;2.42;;;1.12;;
72286;SDS011;60221;45.696;16.076;2022-09-09T11:25:08;2.65;;;1.17;;
72286;SDS011;60221;45.696;16.076;2022-09-09T11:34:02;3.00;;;1.72;;
72286;SDS011;60221;45.696;16.076;2022-09-09T11:42:21;4.80;;;1.33;;
72286;SDS011;60221;45.696;16.076;2022-09-09T11:44:50;4.12;;;1.55;;
72286;SDS011;60221;45.696;16.076;2022-09-09T11:47:25;5.97;;;1.50;;
72286;SDS011;60221;45.696;16.076;2022-09-09T11:52:49;2.95;;;1.40;;
72286;SDS011;60221;45.696;16.076;2022-09-09T11:55:28;3.90;;;1.33;;
72286;SDS011;60221;45.696;16.076;2022-09-09T11:57:58;4.97;;;1.65;;
72286;SDS011;60221;45.696;16.076;2022-09-09T12:00:32;5.85;;;1.90;;
72286;SDS011;60221;45.696;16.076;2022-09-09T12:03:03;2.52;;;1.05;;
72286;SDS011;60221;45.696;16.076;2022-09-09T12:05:44;3.70;;;1.37;;
72286;SDS011;60221;45.696;16.076;2022-09-09T12:08:15;5.07;;;1.07;;
72286;SDS011;60221;45.696;16.076;2022-09-09T12:10:52;4.30;;;1.50;;
72286;SDS011;60221;45.696;16.076;2022-09-09T12:13:22;6.35;;;1.90;;
72286;SDS011;60221;45.696;16.076;2022-09-09T12:15:52;4.35;;;1.32;;
72286;SDS011;60221;45.696;16.076;2022-09-09T12:18:22;4.45;;;1.60;;
72286;SDS011;60221;45.696;16.076;2022-09-09T12:24:03;4.35;;;1.70;;
72286;SDS011;60221;45.696;16.076;2022-09-09T12:26:37;4.83;;;1.62;;
72286;SDS011;60221;45.696;16.076;2022-09-09T12:29:25;4.53;;;1.47;;
72286;SDS011;60221;45.696;16.076;2022-09-09T12:32:10;3.62;;;1.32;;
72286;SDS011;60221;45.696;16.076;2022-09-09T12:34:59;4.23;;;1.60;;
72286;SDS011;60221;45.696;16.076;2022-09-09T12:37:38;5.12;;;1.32;;
72286;SDS011;60221;45.696;16.076;2022-09-09T12:40:22;5.53;;;1.30;;
72286;SDS011;60221;45.696;16.076;2022-09-09T12:43:00;5.12;;;1.42;;
72286;SDS011;60221;45.696;16.076;2022-09-09T12:45:29;3.08;;;1.05;;
72286;SDS011;60221;45.696;16.076;2022-09-09T12:48:02;2.83;;;1.13;;
72286;SDS011;60221;45.696;16.076;2022-09-09T12:50:47;3.00;;;1.30;;
72286;SDS011;60221;45.696;16.076;2022-09-09T12:56:03;3.87;;;1.05;;
72286;SDS011;60221;45.696;16.076;2022-09-09T12:58:36;5.17;;;1.42;;
72286;SDS011;60221;45.696;16.076;2022-09-09T13:01:05;3.03;;;1.30;;
72286;SDS011;60221;45.696;16.076;2022-09-09T13:03:41;4.10;;;1.35;;
72286;SDS011;60221;45.696;16.076;2022-09-09T13:06:12;3.00;;;1.30;;
72286;SDS011;60221;45.696;16.076;2022-09-09T13:08:42;2.50;;;1.20;;
72286;SDS011;60221;45.696;16.076;2022-09-09T13:11:10;4.37;;;1.52;;
72286;SDS011;60221;45.696;16.076;2022-09-09T13:13:41;3.77;;;1.23;;
72286;SDS011;60221;45.696;16.076;2022-09-09T13:16:25;4.87;;;1.65;;
72286;SDS011;60221;45.696;16.076;2022-09-09T13:19:06;3.20;;;1.57;;
72286;SDS011;60221;45.696;16.076;2022-09-09T13:21:39;4.17;;;1.60;;
72286;SDS011;60221;45.696;16.076;2022-09-09T13:27:01;3.70;;;1.40;;
72286;SDS011;60221;45.696;16.076;2022-09-09T13:29:31;4.92;;;1.70;;
72286;SDS011;60221;45.696;16.076;2022-09-09T13:32:05;5.55;;;1.50;;
72286;SDS011;60221;45.696;16.076;2022-09-09T13:34:49;4.58;;;1.22;;
72286;SDS011;60221;45.696;16.076;2022-09-09T13:37:37;5.58;;;1.98;;
72286;SDS011;60221;45.696;16.076;2022-09-09T13:40:12;3.80;;;1.37;;
72286;SDS011;60221;45.696;16.076;2022-09-09T13:42:47;6.45;;;1.30;;
72286;SDS011;60221;45.696;16.076;2022-09-09T13:45:24;4.87;;;1.67;;
72286;SDS011;60221;45.696;16.076;2022-09-09T13:47:53;9.00;;;2.98;;
72286;SDS011;60221;45.696;16.076;2022-09-09T13:50:22;4.05;;;1.70;;
72286;SDS011;60221;45.696;16.076;2022-09-09T13:52:55;3.67;;;1.60;;
72286;SDS011;60221;45.696;16.076;2022-09-09T13:55:28;4.72;;;1.70;;
72286;SDS011;60221;45.696;16.076;2022-09-09T13:57:59;5.53;;;1.30;;
72286;SDS011;60221;45.696;16.076;2022-09-09T14:00:31;4.45;;;1.30;;
72286;SDS011;60221;45.696;16.076;2022-09-09T14:03:01;3.33;;;1.50;;
72286;SDS011;60221;45.696;16.076;2022-09-09T14:05:29;8.83;;;3.30;;
72286;SDS011;60221;45.696;16.076;2022-09-09T14:08:00;10.48;;;3.58;;
72286;SDS011;60221;45.696;16.076;2022-09-09T14:10:28;8.53;;;2.75;;
72286;SDS011;60221;45.696;16.076;2022-09-09T14:12:54;3.90;;;1.60;;
72286;SDS011;60221;45.696;16.076;2022-09-09T14:15:21;2.70;;;1.10;;
72286;SDS011;60221;45.696;16.076;2022-09-09T14:17:47;5.57;;;1.30;;
72286;SDS011;60221;45.696;16.076;2022-09-09T14:20:14;4.15;;;1.80;;
72286;SDS011;60221;45.696;16.076;2022-09-09T14:22:43;7.97;;;2.52;;
72286;SDS011;60221;45.696;16.076;2022-09-09T14:25:09;9.05;;;1.80;;
72286;SDS011;60221;45.696;16.076;2022-09-09T14:27:39;9.30;;;3.00;;
72286;SDS011;60221;45.696;16.076;2022-09-09T14:30:06;4.07;;;1.23;;
72286;SDS011;60221;45.696;16.076;2022-09-09T14:32:35;3.62;;;1.40;;
72286;SDS011;60221;45.696;16.076;2022-09-09T14:35:01;5.53;;;1.65;;
72286;SDS011;60221;45.696;16.076;2022-09-09T14:37:27;4.70;;;1.42;;
72286;SDS011;60221;45.696;16.076;2022-09-09T14:39:53;4.13;;;1.50;;
72286;SDS011;60221;45.696;16.076;2022-09-09T14:42:20;3.95;;;1.40;;
72286;SDS011;60221;45.696;16.076;2022-09-09T14:44:46;3.62;;;1.10;;
72286;SDS011;60221;45.696;16.076;2022-09-09T14:47:13;4.78;;;1.67;;
72286;SDS011;60221;45.696;16.076;2022-09-09T14:49:39;5.00;;;1.53;;
72286;SDS011;60221;45.696;16.076;2022-09-09T14:52:05;5.97;;;1.40;;
72286;SDS011;60221;45.696;16.076;2022-09-09T14:54:31;4.67;;;1.37;;
72286;SDS011;60221;45.696;16.076;2022-09-09T14:56:58;4.53;;;1.17;;
72286;SDS011;60221;45.696;16.076;2022-09-09T14:59:25;4.07;;;1.40;;
72286;SDS011;60221;45.696;16.076;2022-09-09T15:01:54;3.77;;;1.50;;
72286;SDS011;60221;45.696;16.076;2022-09-09T15:04:21;5.17;;;1.45;;
72286;SDS011;60221;45.696;16.076;2022-09-09T15:06:47;6.25;;;1.90;;
72286;SDS011;60221;45.696;16.076;2022-09-09T15:09:15;3.75;;;1.55;;
72286;SDS011;60221;45.696;16.076;2022-09-09T15:11:42;6.07;;;1.70;;
72286;SDS011;60221;45.696;16.076;2022-09-09T15:14:09;6.28;;;1.60;;
72286;SDS011;60221;45.696;16.076;2022-09-09T15:16:37;5.65;;;1.70;;
72286;SDS011;60221;45.696;16.076;2022-09-09T15:19:05;5.60;;;1.85;;
72286;SDS011;60221;45.696;16.076;2022-09-09T15:21:32;4.17;;;1.80;;
72286;SDS011;60221;45.696;16.076;2022-09-09T15:24:01;4.67;;;1.62;;
72286;SDS011;60221;45.696;16.076;2022-09-09T15:26:28;7.22;;;1.80;;
72286;SDS011;60221;45.696;16.076;2022-09-09T15:28:55;4.75;;;1.60;;
72286;SDS011;60221;45.696;16.076;2022-09-09T15:31:25;5.20;;;1.87;;
72286;SDS011;60221;45.696;16.076;2022-09-09T15:33:57;7.23;;;2.20;;
72286;SDS011;60221;45.696;16.076;2022-09-09T15:36:31;5.40;;;2.05;;
72286;SDS011;60221;45.696;16.076;2022-09-09T15:39:07;5.80;;;2.05;;
72286;SDS011;60221;45.696;16.076;2022-09-09T15:41:38;5.35;;;2.30;;
72286;SDS011;60221;45.696;16.076;2022-09-09T15:44:05;6.08;;;2.00;;
72286;SDS011;60221;45.696;16.076;2022-09-09T15:46:40;5.60;;;1.83;;
72286;SDS011;60221;45.696;16.076;2022-09-09T15:49:15;6.15;;;1.92;;
72286;SDS011;60221;45.696;16.076;2022-09-09T15:51:45;5.67;;;2.22;;
72286;SDS011;60221;45.696;16.076;2022-09-09T15:54:16;5.25;;;2.10;;
72286;SDS011;60221;45.696;16.076;2022-09-09T15:56:56;6.00;;;2.20;;
72286;SDS011;60221;45.696;16.076;2022-09-09T15:59:25;6.03;;;2.00;;
72286;SDS011;60221;45.696;16.076;2022-09-09T16:01:55;4.72;;;1.90;;
72286;SDS011;60221;45.696;16.076;2022-09-09T16:04:24;5.58;;;2.25;;
72286;SDS011;60221;45.696;16.076;2022-09-09T16:06:54;8.30;;;4.53;;
72286;SDS011;60221;45.696;16.076;2022-09-09T16:09:27;10.63;;;6.33;;
72286;SDS011;60221;45.696;16.076;2022-09-09T16:11:55;8.23;;;3.47;;
72286;SDS011;60221;45.696;16.076;2022-09-09T16:14:24;6.45;;;2.60;;
72286;SDS011;60221;45.696;16.076;2022-09-09T16:16:51;6.55;;;2.17;;
72286;SDS011;60221;45.696;16.076;2022-09-09T16:19:17;6.17;;;2.60;;
72286;SDS011;60221;45.696;16.076;2022-09-09T16:21:45;6.80;;;2.30;;
72286;SDS011;60221;45.696;16.076;2022-09-09T16:24:15;5.23;;;1.60;;
72286;SDS011;60221;45.696;16.076;2022-09-09T16:26:46;4.35;;;1.77;;
72286;SDS011;60221;45.696;16.076;2022-09-09T16:29:15;4.17;;;1.47;;
72286;SDS011;60221;45.696;16.076;2022-09-09T16:31:49;5.60;;;1.57;;
72286;SDS011;60221;45.696;16.076;2022-09-09T16:34:16;4.83;;;1.22;;
72286;SDS011;60221;45.696;16.076;2022-09-09T16:36:45;6.77;;;1.87;;
72286;SDS011;60221;45.696;16.076;2022-09-09T16:39:14;5.20;;;1.70;;
72286;SDS011;60221;45.696;16.076;2022-09-09T16:41:45;7.45;;;1.62;;
72286;SDS011;60221;45.696;16.076;2022-09-09T16:44:14;3.77;;;1.50;;
72286;SDS011;60221;45.696;16.076;2022-09-09T16:46:44;5.47;;;1.65;;
72286;SDS011;60221;45.696;16.076;2022-09-09T16:49:13;4.30;;;1.73;;
72286;SDS011;60221;45.696;16.076;2022-09-09T16:51:42;4.90;;;1.70;;
72286;SDS011;60221;45.696;16.076;2022-09-09T16:54:15;4.03;;;1.45;;
72286;SDS011;60221;45.696;16.076;2022-09-09T16:56:44;3.37;;;1.25;;
72286;SDS011;60221;45.696;16.076;2022-09-09T16:59:20;3.77;;;1.20;;
72286;SDS011;60221;45.696;16.076;2022-09-09T17:01:46;5.53;;;1.20;;
72286;SDS011;60221;45.696;16.076;2022-09-09T17:04:16;10.25;;;3.90;;
72286;SDS011;60221;45.696;16.076;2022-09-09T17:06:47;10.05;;;5.42;;
72286;SDS011;60221;45.696;16.076;2022-09-09T17:09:16;15.13;;;7.37;;